sensor_id;sensor_type;location;lat;lon;timestamp;pressure;altitude;pressure_sealevel;temperature;humidity
64933;BME280;51446;53.850;10.662;2023-11-21T00:02:11;101031.72;;;6.38;100.00
64933;BME280;51446;53.850;10.662;2023-11-21T00:04:36;101025.00;;;6.45;100.00
64933;BME280;51446;53.850;10.662;2023-11-21T00:07:02;101026.94;;;6.51;100.00
64933;BME280;51446;53.850;10.662;2023-11-21T00:09:28;101019.91;;;6.48;100.00
64933;BME280;51446;53.850;10.662;2023-11-21T00:11:53;101018.91;;;6.45;100.00
64933;BME280;51446;53.850;10.662;2023-11-21T00:14:18;101041.59;;;6.47;100.00
64933;BME280;51446;53.850;10.662;2023-11-21T00:16:43;101031.88;;;6.43;100.00
64933;BME280;51446;53.850;10.662;2023-11-21T00:19:09;101035.84;;;6.56;100.00
64933;BME280;51446;53.850;10.662;2023-11-21T00:21:34;101042.25;;;6.41;100.00
64933;BME280;51446;53.850;10.662;2023-11-21T00:23:59;101043.06;;;6.40;100.00
64933;BME280;51446;53.850;10.662;2023-11-21T00:26:25;101048.50;;;6.47;100.00
64933;BME280;51446;53.850;10.662;2023-11-21T00:28:50;101054.72;;;6.50;100.00
64933;BME280;51446;53.850;10.662;2023-11-21T00:31:16;101052.06;;;6.49;100.00
64933;BME280;51446;53.850;10.662;2023-11-21T00:33:41;101063.25;;;6.46;100.00
64933;BME280;51446;53.850;10.662;2023-11-21T00:36:07;101063.22;;;6.22;100.00
64933;BME280;51446;53.850;10.662;2023-11-21T00:38:35;101060.28;;;6.35;100.00
64933;BME280;51446;53.850;10.662;2023-11-21T00:41:00;101064.72;;;6.39;100.00
64933;BME280;51446;53.850;10.662;2023-11-21T00:43:25;101067.81;;;6.29;100.00
64933;BME280;51446;53.850;10.662;2023-11-21T00:45:51;101065.47;;;6.13;100.00
64933;BME280;51446;53.850;10.662;2023-11-21T00:48:16;101075.56;;;6.05;100.00
64933;BME280;51446;53.850;10.662;2023-11-21T00:50:41;101079.88;;;6.25;100.00
64933;BME280;51446;53.850;10.662;2023-11-21T00:53:07;101077.59;;;6.35;100.00
64933;BME280;51446;53.850;10.662;2023-11-21T00:55:32;101078.41;;;6.34;100.00
64933;BME280;51446;53.850;10.662;2023-11-21T00:57:58;101073.41;;;6.38;100.00
64933;BME280;51446;53.850;10.662;2023-11-21T01:00:23;101072.53;;;6.15;100.00
64933;BME280;51446;53.850;10.662;2023-11-21T01:02:48;101076.50;;;6.28;100.00
64933;BME280;51446;53.850;10.662;2023-11-21T01:05:14;101083.47;;;6.29;100.00
64933;BME280;51446;53.850;10.662;2023-11-21T01:07:39;101086.53;;;6.19;100.00
64933;BME280;51446;53.850;10.662;2023-11-21T01:10:04;101087.91;;;6.32;100.00
64933;BME280;51446;53.850;10.662;2023-11-21T01:12:34;101096.66;;;6.34;100.00
64933;BME280;51446;53.850;10.662;2023-11-21T01:14:59;101100.22;;;6.36;100.00
64933;BME280;51446;53.850;10.662;2023-11-21T01:17:25;101099.41;;;6.37;100.00
64933;BME280;51446;53.850;10.662;2023-11-21T01:19:51;101095.88;;;6.36;100.00
64933;BME280;51446;53.850;10.662;2023-11-21T01:22:16;101100.03;;;6.31;100.00
64933;BME280;51446;53.850;10.662;2023-11-21T01:24:43;101092.78;;;6.22;100.00
64933;BME280;51446;53.850;10.662;2023-11-21T01:27:08;101110.41;;;6.07;100.00
64933;BME280;51446;53.850;10.662;2023-11-21T01:29:33;101115.78;;;6.12;100.00
64933;BME280;51446;53.850;10.662;2023-11-21T01:32:00;101112.88;;;6.27;100.00
64933;BME280;51446;53.850;10.662;2023-11-21T01:34:25;101112.63;;;6.20;100.00
64933;BME280;51446;53.850;10.662;2023-11-21T01:36:51;101115.56;;;6.28;100.00
64933;BME280;51446;53.850;10.662;2023-11-21T01:39:16;101127.00;;;6.11;100.00
64933;BME280;51446;53.850;10.662;2023-11-21T01:41:48;101127.06;;;6.12;100.00
64933;BME280;51446;53.850;10.662;2023-11-21T01:44:13;101130.25;;;6.05;100.00
64933;BME280;51446;53.850;10.662;2023-11-21T01:46:38;101124.47;;;6.12;100.00
64933;BME280;51446;53.850;10.662;2023-11-21T01:49:04;101131.63;;;6.18;100.00
64933;BME280;51446;53.850;10.662;2023-11-21T01:51:30;101135.34;;;6.02;100.00
64933;BME280;51446;53.850;10.662;2023-11-21T01:53:56;101134.88;;;6.12;100.00
64933;BME280;51446;53.850;10.662;2023-11-21T01:56:21;101135.19;;;6.20;100.00
64933;BME280;51446;53.850;10.662;2023-11-21T01:58:47;101137.28;;;6.29;100.00
64933;BME280;51446;53.850;10.662;2023-11-21T02:01:12;101144.66;;;6.18;100.00
64933;BME280;51446;53.850;10.662;2023-11-21T02:03:37;101136.19;;;6.23;100.00
64933;BME280;51446;53.850;10.662;2023-11-21T02:06:03;101143.59;;;6.13;100.00
64933;BME280;51446;53.850;10.662;2023-11-21T02:08:28;101143.09;;;6.00;100.00
64933;BME280;51446;53.850;10.662;2023-11-21T02:10:54;101146.34;;;5.96;100.00
64933;BME280;51446;53.850;10.662;2023-11-21T02:13:19;101150.09;;;6.01;100.00
64933;BME280;51446;53.850;10.662;2023-11-21T02:15:44;101155.16;;;5.98;100.00
64933;BME280;51446;53.850;10.662;2023-11-21T02:18:09;101161.75;;;5.90;100.00
64933;BME280;51446;53.850;10.662;2023-11-21T02:20:36;101158.06;;;6.06;100.00
64933;BME280;51446;53.850;10.662;2023-11-21T02:23:04;101167.97;;;5.94;100.00
64933;BME280;51446;53.850;10.662;2023-11-21T02:25:31;101160.16;;;5.94;100.00
64933;BME280;51446;53.850;10.662;2023-11-21T02:27:58;101164.41;;;5.91;100.00
64933;BME280;51446;53.850;10.662;2023-11-21T02:30:24;101169.56;;;6.11;100.00
64933;BME280;51446;53.850;10.662;2023-11-21T02:32:59;101176.94;;;6.00;100.00
64933;BME280;51446;53.850;10.662;2023-11-21T02:35:25;101175.72;;;6.13;100.00
64933;BME280;51446;53.850;10.662;2023-11-21T02:37:54;101175.66;;;6.12;100.00
64933;BME280;51446;53.850;10.662;2023-11-21T02:40:19;101176.28;;;6.06;100.00
64933;BME280;51446;53.850;10.662;2023-11-21T02:42:46;101175.72;;;5.92;100.00
64933;BME280;51446;53.850;10.662;2023-11-21T02:45:13;101180.41;;;6.22;100.00
64933;BME280;51446;53.850;10.662;2023-11-21T02:47:39;101189.19;;;6.03;100.00
64933;BME280;51446;53.850;10.662;2023-11-21T02:50:05;101193.41;;;5.99;100.00
64933;BME280;51446;53.850;10.662;2023-11-21T02:52:32;101198.81;;;5.84;100.00
64933;BME280;51446;53.850;10.662;2023-11-21T02:54:58;101182.88;;;5.77;100.00
64933;BME280;51446;53.850;10.662;2023-11-21T02:57:23;101199.84;;;5.88;100.00
64933;BME280;51446;53.850;10.662;2023-11-21T02:59:48;101194.50;;;5.85;100.00
64933;BME280;51446;53.850;10.662;2023-11-21T03:02:14;101198.09;;;6.08;100.00
64933;BME280;51446;53.850;10.662;2023-11-21T03:04:40;101201.59;;;5.89;100.00
64933;BME280;51446;53.850;10.662;2023-11-21T03:07:05;101198.34;;;5.95;100.00
64933;BME280;51446;53.850;10.662;2023-11-21T03:09:31;101199.00;;;5.89;100.00
64933;BME280;51446;53.850;10.662;2023-11-21T03:11:56;101199.44;;;5.98;100.00
64933;BME280;51446;53.850;10.662;2023-11-21T03:14:21;101202.56;;;5.91;100.00
64933;BME280;51446;53.850;10.662;2023-11-21T03:16:48;101210.22;;;6.07;100.00
64933;BME280;51446;53.850;10.662;2023-11-21T03:19:14;101218.69;;;5.82;100.00
64933;BME280;51446;53.850;10.662;2023-11-21T03:21:40;101224.97;;;5.87;100.00
64933;BME280;51446;53.850;10.662;2023-11-21T03:24:05;101220.59;;;5.86;100.00
64933;BME280;51446;53.850;10.662;2023-11-21T03:26:32;101225.53;;;6.21;100.00
64933;BME280;51446;53.850;10.662;2023-11-21T03:28:57;101229.13;;;6.03;100.00
64933;BME280;51446;53.850;10.662;2023-11-21T03:31:22;101222.03;;;5.99;100.00
64933;BME280;51446;53.850;10.662;2023-11-21T03:33:48;101226.75;;;6.08;100.00
64933;BME280;51446;53.850;10.662;2023-11-21T03:36:13;101232.00;;;5.90;100.00
64933;BME280;51446;53.850;10.662;2023-11-21T03:38:40;101232.34;;;5.98;100.00
64933;BME280;51446;53.850;10.662;2023-11-21T03:41:06;101234.31;;;6.03;100.00
64933;BME280;51446;53.850;10.662;2023-11-21T03:43:32;101240.69;;;5.90;100.00
64933;BME280;51446;53.850;10.662;2023-11-21T03:45:57;101254.00;;;5.97;100.00
64933;BME280;51446;53.850;10.662;2023-11-21T03:48:22;101254.09;;;5.98;100.00
64933;BME280;51446;53.850;10.662;2023-11-21T03:50:48;101255.44;;;5.90;100.00
64933;BME280;51446;53.850;10.662;2023-11-21T03:53:13;101252.84;;;6.10;100.00
64933;BME280;51446;53.850;10.662;2023-11-21T03:55:39;101255.94;;;6.01;100.00
64933;BME280;51446;53.850;10.662;2023-11-21T03:58:04;101261.22;;;5.83;100.00
64933;BME280;51446;53.850;10.662;2023-11-21T04:00:29;101258.66;;;6.04;100.00
64933;BME280;51446;53.850;10.662;2023-11-21T04:02:55;101263.13;;;6.06;100.00
64933;BME280;51446;53.850;10.662;2023-11-21T04:05:21;101268.97;;;6.01;100.00
64933;BME280;51446;53.850;10.662;2023-11-21T04:07:49;101274.09;;;6.20;100.00
64933;BME280;51446;53.850;10.662;2023-11-21T04:10:16;101284.72;;;6.04;100.00
64933;BME280;51446;53.850;10.662;2023-11-21T04:12:41;101286.63;;;5.88;100.00
64933;BME280;51446;53.850;10.662;2023-11-21T04:15:07;101291.25;;;5.96;100.00
64933;BME280;51446;53.850;10.662;2023-11-21T04:17:34;101290.31;;;5.94;100.00
64933;BME280;51446;53.850;10.662;2023-11-21T04:19:59;101304.91;;;5.90;100.00
64933;BME280;51446;53.850;10.662;2023-11-21T04:22:24;101299.44;;;5.84;100.00
64933;BME280;51446;53.850;10.662;2023-11-21T04:24:50;101303.97;;;5.88;100.00
64933;BME280;51446;53.850;10.662;2023-11-21T04:27:15;101300.31;;;5.84;100.00
64933;BME280;51446;53.850;10.662;2023-11-21T04:29:43;101305.66;;;5.87;100.00
64933;BME280;51446;53.850;10.662;2023-11-21T04:32:08;101306.56;;;5.88;100.00
64933;BME280;51446;53.850;10.662;2023-11-21T04:34:33;101311.09;;;5.92;100.00
64933;BME280;51446;53.850;10.662;2023-11-21T04:36:59;101305.72;;;5.89;100.00
64933;BME280;51446;53.850;10.662;2023-11-21T04:39:25;101306.75;;;5.93;100.00
64933;BME280;51446;53.850;10.662;2023-11-21T04:41:50;101300.50;;;5.89;100.00
64933;BME280;51446;53.850;10.662;2023-11-21T04:44:15;101309.41;;;5.94;100.00
64933;BME280;51446;53.850;10.662;2023-11-21T04:46:42;101314.44;;;5.89;100.00
64933;BME280;51446;53.850;10.662;2023-11-21T04:49:07;101324.16;;;5.94;100.00
64933;BME280;51446;53.850;10.662;2023-11-21T04:51:32;101325.66;;;5.88;100.00
64933;BME280;51446;53.850;10.662;2023-11-21T04:53:58;101322.59;;;5.97;100.00
64933;BME280;51446;53.850;10.662;2023-11-21T04:56:23;101325.09;;;5.96;100.00
64933;BME280;51446;53.850;10.662;2023-11-21T04:58:48;101327.44;;;6.09;100.00
64933;BME280;51446;53.850;10.662;2023-11-21T05:01:13;101326.59;;;5.90;100.00
64933;BME280;51446;53.850;10.662;2023-11-21T05:03:39;101333.28;;;5.84;100.00
64933;BME280;51446;53.850;10.662;2023-11-21T05:06:04;101334.34;;;5.89;100.00
64933;BME280;51446;53.850;10.662;2023-11-21T05:08:30;101341.69;;;5.98;100.00
64933;BME280;51446;53.850;10.662;2023-11-21T05:10:55;101341.00;;;5.82;100.00
64933;BME280;51446;53.850;10.662;2023-11-21T05:13:20;101346.28;;;5.84;100.00
64933;BME280;51446;53.850;10.662;2023-11-21T05:15:46;101351.91;;;5.73;100.00
64933;BME280;51446;53.850;10.662;2023-11-21T05:18:11;101359.66;;;5.72;100.00
64933;BME280;51446;53.850;10.662;2023-11-21T05:20:38;101361.41;;;5.73;100.00
64933;BME280;51446;53.850;10.662;2023-11-21T05:23:04;101362.53;;;5.98;100.00
64933;BME280;51446;53.850;10.662;2023-11-21T05:25:29;101367.44;;;5.91;100.00
64933;BME280;51446;53.850;10.662;2023-11-21T05:27:55;101369.97;;;5.90;100.00
64933;BME280;51446;53.850;10.662;2023-11-21T05:30:21;101369.88;;;6.06;100.00
64933;BME280;51446;53.850;10.662;2023-11-21T05:32:46;101365.47;;;6.05;100.00
64933;BME280;51446;53.850;10.662;2023-11-21T05:35:11;101367.13;;;6.03;100.00
64933;BME280;51446;53.850;10.662;2023-11-21T05:37:40;101374.31;;;6.09;100.00
64933;BME280;51446;53.850;10.662;2023-11-21T05:40:06;101372.31;;;6.03;100.00
64933;BME280;51446;53.850;10.662;2023-11-21T05:42:33;101377.47;;;6.02;100.00
64933;BME280;51446;53.850;10.662;2023-11-21T05:44:58;101373.69;;;5.95;100.00
64933;BME280;51446;53.850;10.662;2023-11-21T05:47:54;101380.13;;;6.03;100.00
64933;BME280;51446;53.850;10.662;2023-11-21T05:50:20;101374.59;;;6.15;100.00
64933;BME280;51446;53.850;10.662;2023-11-21T05:52:47;101383.34;;;6.17;100.00
64933;BME280;51446;53.850;10.662;2023-11-21T05:55:13;101384.94;;;6.14;100.00
64933;BME280;51446;53.850;10.662;2023-11-21T05:57:39;101395.38;;;5.96;100.00
64933;BME280;51446;53.850;10.662;2023-11-21T06:00:05;101401.41;;;5.95;100.00
64933;BME280;51446;53.850;10.662;2023-11-21T06:02:41;101413.47;;;5.93;100.00
64933;BME280;51446;53.850;10.662;2023-11-21T06:05:07;101414.59;;;5.98;100.00
64933;BME280;51446;53.850;10.662;2023-11-21T06:07:32;101415.94;;;5.89;100.00
64933;BME280;51446;53.850;10.662;2023-11-21T06:09:58;101416.56;;;5.84;100.00
64933;BME280;51446;53.850;10.662;2023-11-21T06:12:23;101430.13;;;5.77;100.00
64933;BME280;51446;53.850;10.662;2023-11-21T06:14:48;101435.38;;;5.78;100.00
64933;BME280;51446;53.850;10.662;2023-11-21T06:17:14;101440.59;;;5.78;100.00
64933;BME280;51446;53.850;10.662;2023-11-21T06:19:39;101446.69;;;5.79;100.00
64933;BME280;51446;53.850;10.662;2023-11-21T06:22:05;101451.00;;;5.78;100.00
64933;BME280;51446;53.850;10.662;2023-11-21T06:24:31;101445.81;;;5.78;100.00
64933;BME280;51446;53.850;10.662;2023-11-21T06:26:56;101453.59;;;5.78;100.00
64933;BME280;51446;53.850;10.662;2023-11-21T06:29:21;101458.47;;;5.70;100.00
64933;BME280;51446;53.850;10.662;2023-11-21T06:31:47;101462.75;;;5.70;100.00
64933;BME280;51446;53.850;10.662;2023-11-21T06:34:12;101460.38;;;5.74;100.00
64933;BME280;51446;53.850;10.662;2023-11-21T06:36:38;101474.16;;;5.72;100.00
64933;BME280;51446;53.850;10.662;2023-11-21T06:39:04;101489.44;;;5.84;100.00
64933;BME280;51446;53.850;10.662;2023-11-21T06:41:34;101488.47;;;5.82;100.00
64933;BME280;51446;53.850;10.662;2023-11-21T06:43:59;101494.06;;;5.71;100.00
64933;BME280;51446;53.850;10.662;2023-11-21T06:46:25;101498.44;;;5.72;100.00
64933;BME280;51446;53.850;10.662;2023-11-21T06:48:50;101500.25;;;5.73;100.00
64933;BME280;51446;53.850;10.662;2023-11-21T06:51:15;101499.31;;;5.73;100.00
64933;BME280;51446;53.850;10.662;2023-11-21T06:53:41;101500.44;;;5.78;100.00
64933;BME280;51446;53.850;10.662;2023-11-21T06:56:15;101496.13;;;5.79;100.00
64933;BME280;51446;53.850;10.662;2023-11-21T06:58:41;101501.13;;;5.74;100.00
64933;BME280;51446;53.850;10.662;2023-11-21T07:01:06;101503.66;;;5.72;100.00
64933;BME280;51446;53.850;10.662;2023-11-21T07:03:31;101516.59;;;5.71;100.00
64933;BME280;51446;53.850;10.662;2023-11-21T07:05:56;101513.19;;;5.72;100.00
64933;BME280;51446;53.850;10.662;2023-11-21T07:08:22;101518.38;;;5.72;100.00
64933;BME280;51446;53.850;10.662;2023-11-21T07:10:47;101521.13;;;5.75;100.00
64933;BME280;51446;53.850;10.662;2023-11-21T07:13:12;101523.00;;;5.78;100.00
64933;BME280;51446;53.850;10.662;2023-11-21T07:15:38;101526.13;;;5.70;100.00
64933;BME280;51446;53.850;10.662;2023-11-21T07:18:03;101527.97;;;5.73;100.00
64933;BME280;51446;53.850;10.662;2023-11-21T07:20:28;101538.38;;;5.91;100.00
64933;BME280;51446;53.850;10.662;2023-11-21T07:22:55;101540.69;;;5.85;100.00
64933;BME280;51446;53.850;10.662;2023-11-21T07:25:21;101546.56;;;5.81;100.00
64933;BME280;51446;53.850;10.662;2023-11-21T07:27:47;101556.72;;;5.76;100.00
64933;BME280;51446;53.850;10.662;2023-11-21T07:30:12;101559.50;;;5.79;100.00
64933;BME280;51446;53.850;10.662;2023-11-21T07:32:38;101563.66;;;5.76;100.00
64933;BME280;51446;53.850;10.662;2023-11-21T07:35:04;101570.59;;;5.75;100.00
64933;BME280;51446;53.850;10.662;2023-11-21T07:37:30;101570.06;;;5.82;100.00
64933;BME280;51446;53.850;10.662;2023-11-21T07:39:55;101564.84;;;5.82;100.00
64933;BME280;51446;53.850;10.662;2023-11-21T07:42:23;101571.69;;;5.80;100.00
64933;BME280;51446;53.850;10.662;2023-11-21T07:44:51;101580.47;;;5.82;100.00
64933;BME280;51446;53.850;10.662;2023-11-21T07:47:17;101581.81;;;5.92;100.00
64933;BME280;51446;53.850;10.662;2023-11-21T07:49:42;101589.63;;;5.92;100.00
64933;BME280;51446;53.850;10.662;2023-11-21T07:52:09;101594.50;;;5.86;100.00
64933;BME280;51446;53.850;10.662;2023-11-21T07:54:34;101589.69;;;5.94;100.00
64933;BME280;51446;53.850;10.662;2023-11-21T07:57:01;101598.09;;;5.88;100.00
64933;BME280;51446;53.850;10.662;2023-11-21T07:59:26;101607.81;;;5.74;100.00
64933;BME280;51446;53.850;10.662;2023-11-21T08:01:51;101608.41;;;5.68;100.00
64933;BME280;51446;53.850;10.662;2023-11-21T08:04:16;101618.00;;;5.69;100.00
64933;BME280;51446;53.850;10.662;2023-11-21T08:06:42;101608.78;;;5.58;100.00
64933;BME280;51446;53.850;10.662;2023-11-21T08:09:07;101612.53;;;5.63;100.00
64933;BME280;51446;53.850;10.662;2023-11-21T08:11:33;101611.09;;;5.70;100.00
64933;BME280;51446;53.850;10.662;2023-11-21T08:13:59;101617.28;;;5.72;100.00
64933;BME280;51446;53.850;10.662;2023-11-21T08:16:24;101615.78;;;5.77;100.00
64933;BME280;51446;53.850;10.662;2023-11-21T08:18:50;101619.94;;;5.91;100.00
64933;BME280;51446;53.850;10.662;2023-11-21T08:21:15;101628.19;;;5.83;100.00
64933;BME280;51446;53.850;10.662;2023-11-21T08:23:40;101629.78;;;5.79;100.00
64933;BME280;51446;53.850;10.662;2023-11-21T08:26:06;101635.50;;;5.90;100.00
64933;BME280;51446;53.850;10.662;2023-11-21T08:28:31;101633.69;;;5.89;100.00
64933;BME280;51446;53.850;10.662;2023-11-21T08:30:56;101641.44;;;5.87;100.00
64933;BME280;51446;53.850;10.662;2023-11-21T08:33:22;101640.63;;;5.88;100.00
64933;BME280;51446;53.850;10.662;2023-11-21T08:35:47;101642.34;;;5.88;100.00
64933;BME280;51446;53.850;10.662;2023-11-21T08:38:13;101638.97;;;5.90;100.00
64933;BME280;51446;53.850;10.662;2023-11-21T08:40:38;101642.06;;;6.00;100.00
64933;BME280;51446;53.850;10.662;2023-11-21T08:43:03;101645.50;;;5.99;100.00
64933;BME280;51446;53.850;10.662;2023-11-21T08:45:32;101651.22;;;6.10;100.00
64933;BME280;51446;53.850;10.662;2023-11-21T08:48:02;101657.78;;;6.01;100.00
64933;BME280;51446;53.850;10.662;2023-11-21T08:50:28;101655.09;;;6.00;100.00
64933;BME280;51446;53.850;10.662;2023-11-21T08:52:53;101657.72;;;5.83;100.00
64933;BME280;51446;53.850;10.662;2023-11-21T08:55:18;101662.09;;;5.84;100.00
64933;BME280;51446;53.850;10.662;2023-11-21T08:57:45;101668.06;;;5.82;100.00
64933;BME280;51446;53.850;10.662;2023-11-21T09:00:12;101673.03;;;5.77;100.00
64933;BME280;51446;53.850;10.662;2023-11-21T09:02:38;101679.97;;;5.77;100.00
64933;BME280;51446;53.850;10.662;2023-11-21T09:05:05;101691.03;;;5.72;100.00
64933;BME280;51446;53.850;10.662;2023-11-21T09:07:31;101693.78;;;5.76;100.00
64933;BME280;51446;53.850;10.662;2023-11-21T09:09:56;101700.19;;;5.82;100.00
64933;BME280;51446;53.850;10.662;2023-11-21T09:12:21;101706.78;;;5.76;100.00
64933;BME280;51446;53.850;10.662;2023-11-21T09:14:47;101729.41;;;5.77;100.00
64933;BME280;51446;53.850;10.662;2023-11-21T09:17:12;101725.59;;;5.70;100.00
64933;BME280;51446;53.850;10.662;2023-11-21T09:19:38;101727.00;;;5.63;100.00
64933;BME280;51446;53.850;10.662;2023-11-21T09:22:03;101728.81;;;5.48;100.00
64933;BME280;51446;53.850;10.662;2023-11-21T09:24:30;101734.53;;;5.75;100.00
64933;BME280;51446;53.850;10.662;2023-11-21T09:26:55;101738.06;;;5.59;100.00
64933;BME280;51446;53.850;10.662;2023-11-21T09:29:20;101742.38;;;5.42;100.00
64933;BME280;51446;53.850;10.662;2023-11-21T09:31:47;101745.56;;;5.36;100.00
64933;BME280;51446;53.850;10.662;2023-11-21T09:34:12;101748.25;;;5.38;100.00
64933;BME280;51446;53.850;10.662;2023-11-21T09:36:38;101753.84;;;5.29;100.00
64933;BME280;51446;53.850;10.662;2023-11-21T09:39:04;101758.91;;;5.26;100.00
64933;BME280;51446;53.850;10.662;2023-11-21T09:41:40;101758.25;;;5.30;100.00
64933;BME280;51446;53.850;10.662;2023-11-21T09:44:09;101767.03;;;5.49;100.00
64933;BME280;51446;53.850;10.662;2023-11-21T09:46:40;101764.91;;;5.42;100.00
64933;BME280;51446;53.850;10.662;2023-11-21T09:49:08;101765.16;;;5.46;100.00
64933;BME280;51446;53.850;10.662;2023-11-21T09:51:39;101770.66;;;5.52;100.00
64933;BME280;51446;53.850;10.662;2023-11-21T09:54:08;101767.97;;;5.67;100.00
64933;BME280;51446;53.850;10.662;2023-11-21T09:56:35;101773.97;;;5.83;100.00
64933;BME280;51446;53.850;10.662;2023-11-21T09:59:01;101773.69;;;5.95;100.00
64933;BME280;51446;53.850;10.662;2023-11-21T10:01:33;101777.06;;;5.92;100.00
64933;BME280;51446;53.850;10.662;2023-11-21T10:04:00;101780.66;;;6.12;100.00
64933;BME280;51446;53.850;10.662;2023-11-21T10:06:26;101782.06;;;5.89;100.00
64933;BME280;51446;53.850;10.662;2023-11-21T10:08:53;101779.88;;;5.97;100.00
64933;BME280;51446;53.850;10.662;2023-11-21T10:11:19;101792.34;;;6.02;100.00
64933;BME280;51446;53.850;10.662;2023-11-21T10:13:45;101790.22;;;6.12;100.00
64933;BME280;51446;53.850;10.662;2023-11-21T10:16:14;101781.56;;;5.96;100.00
64933;BME280;51446;53.850;10.662;2023-11-21T10:18:41;101779.94;;;6.15;100.00
64933;BME280;51446;53.850;10.662;2023-11-21T10:21:07;101789.75;;;6.02;100.00
64933;BME280;51446;53.850;10.662;2023-11-21T10:23:34;101783.56;;;5.84;100.00
64933;BME280;51446;53.850;10.662;2023-11-21T10:25:59;101784.19;;;6.13;100.00
64933;BME280;51446;53.850;10.662;2023-11-21T10:28:25;101780.72;;;6.30;100.00
64933;BME280;51446;53.850;10.662;2023-11-21T10:30:51;101770.44;;;6.15;100.00
64933;BME280;51446;53.850;10.662;2023-11-21T10:33:16;101777.75;;;6.06;100.00
64933;BME280;51446;53.850;10.662;2023-11-21T10:38:07;101783.28;;;6.12;100.00
64933;BME280;51446;53.850;10.662;2023-11-21T10:40:37;101781.94;;;6.20;100.00
64933;BME280;51446;53.850;10.662;2023-11-21T10:43:10;101797.06;;;6.28;100.00
64933;BME280;51446;53.850;10.662;2023-11-21T10:45:38;101795.53;;;6.31;100.00
64933;BME280;51446;53.850;10.662;2023-11-21T10:48:07;101796.69;;;6.38;100.00
64933;BME280;51446;53.850;10.662;2023-11-21T10:50:34;101802.25;;;6.44;100.00
64933;BME280;51446;53.850;10.662;2023-11-21T10:53:02;101801.03;;;6.73;100.00
64933;BME280;51446;53.850;10.662;2023-11-21T10:55:29;101803.72;;;7.12;100.00
64933;BME280;51446;53.850;10.662;2023-11-21T10:57:55;101806.34;;;7.12;100.00
64933;BME280;51446;53.850;10.662;2023-11-21T11:00:24;101807.66;;;6.67;100.00
64933;BME280;51446;53.850;10.662;2023-11-21T11:02:52;101809.53;;;6.69;100.00
64933;BME280;51446;53.850;10.662;2023-11-21T11:05:20;101806.53;;;6.43;100.00
64933;BME280;51446;53.850;10.662;2023-11-21T11:07:48;101805.72;;;6.45;100.00
64933;BME280;51446;53.850;10.662;2023-11-21T11:10:19;101815.19;;;6.42;100.00
64933;BME280;51446;53.850;10.662;2023-11-21T11:12:48;101817.56;;;6.56;100.00
64933;BME280;51446;53.850;10.662;2023-11-21T11:15:15;101821.81;;;6.36;100.00
64933;BME280;51446;53.850;10.662;2023-11-21T11:17:40;101823.03;;;6.26;100.00
64933;BME280;51446;53.850;10.662;2023-11-21T11:20:08;101830.34;;;6.15;100.00
64933;BME280;51446;53.850;10.662;2023-11-21T11:23:07;101831.72;;;6.08;100.00
64933;BME280;51446;53.850;10.662;2023-11-21T11:28:11;101840.19;;;5.88;100.00
64933;BME280;51446;53.850;10.662;2023-11-21T11:31:04;101841.31;;;5.77;100.00
64933;BME280;51446;53.850;10.662;2023-11-21T11:33:42;101834.97;;;5.88;100.00
64933;BME280;51446;53.850;10.662;2023-11-21T11:36:15;101834.91;;;5.86;100.00
64933;BME280;51446;53.850;10.662;2023-11-21T11:38:45;101827.09;;;5.70;100.00
64933;BME280;51446;53.850;10.662;2023-11-21T11:41:11;101839.91;;;5.83;100.00
64933;BME280;51446;53.850;10.662;2023-11-21T11:43:37;101839.13;;;5.84;100.00
64933;BME280;51446;53.850;10.662;2023-11-21T11:46:10;101843.66;;;5.88;100.00
64933;BME280;51446;53.850;10.662;2023-11-21T11:48:39;101844.91;;;5.79;100.00
64933;BME280;51446;53.850;10.662;2023-11-21T11:51:09;101852.38;;;5.72;100.00
64933;BME280;51446;53.850;10.662;2023-11-21T11:53:39;101854.50;;;5.63;100.00
64933;BME280;51446;53.850;10.662;2023-11-21T11:56:23;101850.59;;;5.71;100.00
64933;BME280;51446;53.850;10.662;2023-11-21T11:58:54;101860.34;;;5.76;100.00
64933;BME280;51446;53.850;10.662;2023-11-21T12:01:21;101853.44;;;5.76;100.00
64933;BME280;51446;53.850;10.662;2023-11-21T12:04:25;101864.00;;;5.63;100.00
64933;BME280;51446;53.850;10.662;2023-11-21T12:07:00;101861.34;;;5.78;100.00
64933;BME280;51446;53.850;10.662;2023-11-21T12:09:27;101857.84;;;5.77;100.00
64933;BME280;51446;53.850;10.662;2023-11-21T12:11:55;101857.19;;;5.65;100.00
64933;BME280;51446;53.850;10.662;2023-11-21T12:14:22;101861.44;;;5.79;100.00
64933;BME280;51446;53.850;10.662;2023-11-21T12:16:48;101867.19;;;5.90;100.00
64933;BME280;51446;53.850;10.662;2023-11-21T12:19:13;101872.88;;;5.83;100.00
64933;BME280;51446;53.850;10.662;2023-11-21T12:21:39;101877.03;;;5.96;100.00
64933;BME280;51446;53.850;10.662;2023-11-21T12:24:09;101882.56;;;5.85;100.00
64933;BME280;51446;53.850;10.662;2023-11-21T12:26:35;101890.66;;;6.06;100.00
64933;BME280;51446;53.850;10.662;2023-11-21T12:29:03;101888.53;;;5.99;100.00
64933;BME280;51446;53.850;10.662;2023-11-21T12:31:30;101893.00;;;6.02;100.00
64933;BME280;51446;53.850;10.662;2023-11-21T12:33:56;101902.91;;;6.09;100.00
64933;BME280;51446;53.850;10.662;2023-11-21T12:36:22;101903.06;;;5.96;100.00
64933;BME280;51446;53.850;10.662;2023-11-21T12:38:48;101908.97;;;6.08;100.00
64933;BME280;51446;53.850;10.662;2023-11-21T12:41:13;101915.19;;;5.95;100.00
64933;BME280;51446;53.850;10.662;2023-11-21T12:43:40;101918.69;;;6.12;100.00